Time;durP1;ratioP1;P1;durP2;ratioP2;P2;SDS_P1;SDS_P2;PMS_P1;PMS_P2;Temp;Humidity;BMP_temperature;BMP_pressure;BME280_temperature;BME280_humidity;BME280_pressure;Samples;Min_cycle;Max_cycle;Signal;HPM_P1;HPM_P2
2023/05/18 00:02:03;;;;;;;10.20;6.30;;;;;;;6.79;100.00;98814.03;5073976;28;20630;-79
2023/05/18 00:04:32;;;;;;;10.47;5.77;;;;;;;6.84;100.00;98810.25;5073689;28;20233;-79
2023/05/18 00:07:02;;;;;;;10.07;6.20;;;;;;;6.87;100.00;98804.88;5074091;28;20201;-80
2023/05/18 00:09:30;;;;;;;9.13;6.10;;;;;;;6.95;100.00;98801.94;5073505;28;20208;-79
2023/05/18 00:11:58;;;;;;;7.53;5.80;;;;;;;6.90;100.00;98799.47;5073549;28;20224;-79
2023/05/18 00:14:25;;;;;;;7.37;5.87;;;;;;;6.92;100.00;98795.03;5073249;28;20252;-83
2023/05/18 00:16:53;;;;;;;9.73;6.40;;;;;;;6.98;100.00;98786.88;5073370;28;20234;-80
2023/05/18 00:19:20;;;;;;;9.83;5.97;;;;;;;7.06;100.00;98797.91;5073444;28;20249;-80
2023/05/18 00:21:47;;;;;;;9.47;6.47;;;;;;;7.07;100.00;98794.34;5073755;28;20283;-80
2023/05/18 00:24:15;;;;;;;10.67;6.50;;;;;;;7.01;100.00;98789.34;5073586;28;20259;-80
2023/05/18 00:26:43;;;;;;;13.33;7.13;;;;;;;6.97;100.00;98782.50;5073572;28;20244;-80
2023/05/18 00:29:11;;;;;;;10.07;6.97;;;;;;;6.86;100.00;98784.78;5073017;28;20208;-80
2023/05/18 00:31:38;;;;;;;9.47;6.67;;;;;;;6.82;100.00;98784.97;5073370;28;20210;-80
2023/05/18 00:34:06;;;;;;;9.13;6.53;;;;;;;6.75;100.00;98784.41;5073239;28;20235;-80
2023/05/18 00:36:33;;;;;;;10.10;6.57;;;;;;;6.73;100.00;98794.09;5073428;28;20232;-80
2023/05/18 00:39:00;;;;;;;8.93;6.60;;;;;;;6.57;100.00;98793.06;5073225;28;20214;-80
2023/05/18 00:41:27;;;;;;;7.30;5.77;;;;;;;6.41;100.00;98794.63;5072841;28;20268;-80
2023/05/18 00:43:54;;;;;;;8.67;5.77;;;;;;;6.27;100.00;98791.75;5072927;28;20229;-80
2023/05/18 00:46:22;;;;;;;7.63;5.37;;;;;;;6.09;100.00;98796.88;5073077;28;20202;-80
2023/05/18 00:48:50;;;;;;;7.10;5.40;;;;;;;5.96;100.00;98795.69;5073117;28;20209;-80
2023/05/18 00:51:18;;;;;;;8.33;6.20;;;;;;;5.85;100.00;98809.22;5072845;28;20715;-80
2023/05/18 00:53:45;;;;;;;9.67;6.07;;;;;;;5.79;100.00;98809.44;5073050;28;20235;-80
2023/05/18 00:56:12;;;;;;;9.13;5.77;;;;;;;5.75;100.00;98813.09;5072809;28;20299;-80
2023/05/18 00:58:39;;;;;;;12.03;6.50;;;;;;;5.76;100.00;98812.19;5072542;28;20284;-80
2023/05/18 01:01:08;;;;;;;9.40;6.03;;;;;;;5.78;100.00;98799.88;5072546;28;20239;-80
2023/05/18 01:03:37;;;;;;;9.67;6.30;;;;;;;5.82;100.00;98798.88;5071452;28;20721;-80
2023/05/18 01:06:04;;;;;;;8.90;5.53;;;;;;;5.86;100.00;98795.19;5072561;28;20214;-80
2023/05/18 01:08:32;;;;;;;8.90;6.07;;;;;;;5.87;100.00;98802.13;5072655;28;20215;-80
2023/05/18 01:11:07;;;;;;;9.37;6.33;;;;;;;5.88;100.00;98793.38;5072202;28;20580;-80
2023/05/18 01:13:41;;;;;;;10.47;6.53;;;;;;;5.94;100.00;98803.63;5072389;28;20250;-80
2023/05/18 01:16:12;;;;;;;9.27;5.80;;;;;;;5.93;100.00;98791.41;5072539;28;20567;-80
2023/05/18 01:18:47;;;;;;;7.73;6.17;;;;;;;5.91;100.00;98793.25;5072543;28;20207;-80
2023/05/18 01:21:24;;;;;;;9.83;6.93;;;;;;;5.81;100.00;98794.50;5072243;28;20223;-80
2023/05/18 01:24:06;;;;;;;9.10;7.10;;;;;;;5.71;100.00;98795.78;5072652;28;20236;-80
2023/05/18 01:26:36;;;;;;;9.83;7.10;;;;;;;5.63;100.00;98791.75;5072471;28;20234;-80
2023/05/18 01:29:08;;;;;;;10.63;7.27;;;;;;;5.52;100.00;98793.94;5072183;28;20208;-80
2023/05/18 01:31:35;;;;;;;9.10;6.80;;;;;;;5.48;100.00;98790.56;5072047;28;20220;-80
2023/05/18 01:34:02;;;;;;;10.20;6.73;;;;;;;5.38;100.00;98797.06;5071984;28;20239;-80
2023/05/18 01:36:28;;;;;;;10.03;7.13;;;;;;;5.38;100.00;98791.00;5072246;28;20228;-80
2023/05/18 01:39:00;;;;;;;9.23;6.20;;;;;;;5.39;100.00;98790.06;5072308;28;20233;-80
2023/05/18 01:41:28;;;;;;;9.90;6.83;;;;;;;5.35;100.00;98794.56;5071804;28;20215;-81
2023/05/18 01:44:03;;;;;;;10.63;6.37;;;;;;;5.33;100.00;98788.56;5072010;28;20223;-80
2023/05/18 01:46:36;;;;;;;8.17;6.13;;;;;;;5.21;100.00;98791.63;5071980;28;20199;-80
2023/05/18 01:49:09;;;;;;;8.90;6.07;;;;;;;5.13;100.00;98793.66;5072151;28;20572;-80
2023/05/18 01:51:40;;;;;;;9.90;6.43;;;;;;;5.04;100.00;98796.63;5071437;28;20212;-80
2023/05/18 01:54:08;;;;;;;9.10;6.40;;;;;;;4.96;100.00;98792.59;5072035;28;20247;-80
2023/05/18 01:56:36;;;;;;;8.43;6.13;;;;;;;4.88;100.00;98787.63;5071602;28;20243;-80
2023/05/18 01:59:03;;;;;;;8.77;6.43;;;;;;;4.82;100.00;98798.31;5071452;28;20208;-80
2023/05/18 02:01:30;;;;;;;8.77;6.40;;;;;;;4.78;100.00;98793.25;5071598;28;20208;-80
2023/05/18 02:03:57;;;;;;;10.07;6.60;;;;;;;4.75;100.00;98782.88;5071481;28;20777;-81
2023/05/18 02:06:23;;;;;;;10.60;7.13;;;;;;;4.73;100.00;98788.19;5071688;28;20216;-81
2023/05/18 02:08:50;;;;;;;8.27;6.27;;;;;;;4.69;100.00;98790.94;5071502;28;20205;-82
2023/05/18 02:11:18;;;;;;;9.80;7.50;;;;;;;4.67;100.00;98785.78;5071053;28;20203;-79
2023/05/18 02:13:44;;;;;;;12.20;9.32;;;;;;;4.77;100.00;98787.16;5070429;28;20438;-81
2023/05/18 02:16:12;;;;;;;10.90;7.97;;;;;;;4.82;100.00;98789.63;5071301;28;20672;-80
2023/05/18 02:18:39;;;;;;;10.60;7.63;;;;;;;4.82;100.00;98782.59;5071456;28;20207;-76
2023/05/18 02:21:05;;;;;;;9.63;8.00;;;;;;;4.73;100.00;98782.94;5071242;28;20207;-76
2023/05/18 02:23:32;;;;;;;9.53;7.73;;;;;;;4.66;100.00;98778.84;5071362;28;20223;-76
2023/05/18 02:25:59;;;;;;;11.40;7.57;;;;;;;4.71;100.00;98782.13;5071181;28;20211;-76
2023/05/18 02:28:26;;;;;;;10.47;7.30;;;;;;;4.85;100.00;98790.38;5071564;28;20290;-76
2023/05/18 02:30:52;;;;;;;9.90;7.27;;;;;;;4.94;100.00;98779.53;5070996;28;20222;-76
2023/05/18 02:33:25;;;;;;;13.60;7.77;;;;;;;4.90;100.00;98783.16;5071212;28;20235;-76
2023/05/18 02:35:53;;;;;;;11.97;7.57;;;;;;;4.83;100.00;98781.69;5071268;28;20212;-80
2023/05/18 02:38:20;;;;;;;11.77;7.37;;;;;;;4.78;100.00;98773.16;5070992;28;20233;-81
2023/05/18 02:40:46;;;;;;;11.03;7.33;;;;;;;4.76;100.00;98772.34;5070788;28;20312;-80
2023/05/18 02:43:13;;;;;;;12.83;7.73;;;;;;;4.69;100.00;98773.47;5071090;28;20253;-80
2023/05/18 02:45:39;;;;;;;11.07;8.07;;;;;;;4.65;100.00;98766.63;5071244;28;20588;-80
2023/05/18 02:48:06;;;;;;;11.27;7.23;;;;;;;4.65;100.00;98761.41;5070889;28;20246;-80
2023/05/18 02:50:34;;;;;;;9.97;7.47;;;;;;;4.66;100.00;98763.13;5070719;28;20211;-80
2023/05/18 02:53:00;;;;;;;11.90;8.03;;;;;;;4.68;100.00;98761.31;5070933;28;20212;-80
2023/05/18 02:55:28;;;;;;;10.90;7.47;;;;;;;4.69;100.00;98767.38;5070810;28;20697;-80
2023/05/18 02:57:55;;;;;;;11.40;7.20;;;;;;;4.73;100.00;98753.28;5070921;28;20507;-80
2023/05/18 03:00:22;;;;;;;10.23;7.13;;;;;;;4.72;100.00;98752.44;5070639;28;20666;-80
2023/05/18 03:02:49;;;;;;;7.60;6.40;;;;;;;4.66;100.00;98763.13;5071308;28;20211;-80
2023/05/18 03:05:17;;;;;;;10.40;6.50;;;;;;;4.60;100.00;98768.59;5074986;28;20736;-80
2023/05/18 03:07:49;;;;;;;9.50;7.00;;;;;;;4.54;100.00;98763.56;5074858;28;20204;-80
2023/05/18 03:10:16;;;;;;;8.73;6.20;;;;;;;4.47;100.00;98762.03;5074580;28;20207;-80
2023/05/18 03:12:42;;;;;;;12.60;7.00;;;;;;;4.45;100.00;98758.63;5075035;28;20211;-80
2023/05/18 03:15:10;;;;;;;9.43;6.37;;;;;;;4.42;100.00;98764.00;5074807;28;20613;-80
2023/05/18 03:17:37;;;;;;;8.73;6.97;;;;;;;4.36;100.00;98764.22;5074648;28;20227;-80
2023/05/18 03:20:05;;;;;;;9.37;6.50;;;;;;;4.35;100.00;98754.63;5074642;28;20214;-80
2023/05/18 03:22:32;;;;;;;10.90;6.87;;;;;;;4.30;100.00;98764.41;5074654;28;20622;-80
2023/05/18 03:25:01;;;;;;;10.03;6.33;;;;;;;4.25;100.00;98766.34;5074578;28;20223;-80
2023/05/18 03:27:27;;;;;;;10.60;6.20;;;;;;;4.13;100.00;98764.13;5074705;28;20213;-80
2023/05/18 03:29:55;;;;;;;8.23;5.80;;;;;;;4.04;100.00;98755.75;5074229;28;20207;-80
2023/05/18 03:32:21;;;;;;;7.43;6.07;;;;;;;4.00;100.00;98752.38;5074576;28;20213;-80
2023/05/18 03:34:48;;;;;;;8.63;5.93;;;;;;;3.96;100.00;98758.59;5074348;28;20249;-80
2023/05/18 03:37:14;;;;;;;10.53;6.07;;;;;;;3.95;100.00;98759.50;5074288;28;20704;-80
2023/05/18 03:39:41;;;;;;;9.60;6.43;;;;;;;3.94;100.00;98760.41;5074120;28;20214;-80
2023/05/18 03:42:09;;;;;;;9.87;6.33;;;;;;;3.93;100.00;98761.34;5074483;28;20210;-80
2023/05/18 03:44:35;;;;;;;7.67;6.57;;;;;;;3.92;100.00;98756.16;5074185;28;20705;-80
2023/05/18 03:47:02;;;;;;;9.27;5.90;;;;;;;3.94;100.00;98762.16;5074198;28;20199;-80
2023/05/18 03:49:29;;;;;;;10.33;6.40;;;;;;;4.06;100.00;98762.63;5073859;28;20214;-80
2023/05/18 03:51:56;;;;;;;11.03;7.03;;;;;;;4.23;100.00;98762.88;5074459;28;20210;-80
2023/05/18 03:54:23;;;;;;;11.07;6.37;;;;;;;4.50;100.00;98761.97;5074315;28;20303;-80
2023/05/18 03:56:49;;;;;;;10.10;5.90;;;;;;;4.70;100.00;98769.94;5074105;28;20211;-82
2023/05/18 03:59:17;;;;;;;12.37;6.73;;;;;;;4.88;100.00;98764.03;5073954;28;20207;-80
2023/05/18 04:01:44;;;;;;;10.47;5.93;;;;;;;4.94;100.00;98774.31;5073890;28;20218;-80
2023/05/18 04:04:16;;;;;;;9.57;5.97;;;;;;;5.13;100.00;98777.94;5073679;28;20234;-80
2023/05/18 04:06:42;;;;;;;10.60;5.57;;;;;;;5.10;100.00;98767.59;5073848;28;20222;-80
2023/05/18 04:09:09;;;;;;;11.63;5.70;;;;;;;5.13;100.00;98777.94;5073509;28;20714;-81
2023/05/18 04:11:35;;;;;;;11.57;5.70;;;;;;;5.15;100.00;98784.00;5073906;28;20217;-81
2023/05/18 04:14:02;;;;;;;9.90;5.47;;;;;;;5.17;100.00;98779.56;5073465;28;20343;-81
2023/05/18 04:16:30;;;;;;;10.00;5.67;;;;;;;5.17;100.00;98778.69;5072841;28;20211;-81
2023/05/18 04:18:56;;;;;;;10.13;5.60;;;;;;;5.27;100.00;98777.44;5073682;28;20235;-80
2023/05/18 04:21:23;;;;;;;7.10;5.00;;;;;;;5.26;100.00;98787.03;5073523;28;20222;-80
2023/05/18 04:23:49;;;;;;;6.40;4.77;;;;;;;5.26;100.00;98789.66;5073525;28;20232;-80
2023/05/18 04:26:18;;;;;;;8.00;5.03;;;;;;;5.24;100.00;98795.88;5073445;28;20322;-80
2023/05/18 04:28:46;;;;;;;10.07;5.53;;;;;;;5.35;100.00;98786.72;5073424;28;20276;-80
2023/05/18 04:31:13;;;;;;;8.00;5.00;;;;;;;5.40;100.00;98783.91;5073324;28;20692;-80
2023/05/18 04:33:41;;;;;;;6.03;4.70;;;;;;;5.43;100.00;98789.88;5073381;28;20223;-80
2023/05/18 04:36:08;;;;;;;8.63;4.67;;;;;;;5.52;100.00;98797.41;5073223;28;20208;-80
2023/05/18 04:38:34;;;;;;;10.00;5.40;;;;;;;5.61;100.00;98802.28;5073337;28;20519;-80
2023/05/18 04:41:04;;;;;;;7.70;4.97;;;;;;;5.65;100.00;98801.25;5072921;28;20223;-80
2023/05/18 04:43:30;;;;;;;7.10;4.80;;;;;;;5.67;100.00;98798.59;5072944;28;20548;-80
2023/05/18 04:45:57;;;;;;;7.67;5.17;;;;;;;5.73;100.00;98799.19;5073299;28;20213;-79
2023/05/18 04:48:24;;;;;;;8.23;5.00;;;;;;;5.91;100.00;98795.88;5073378;28;20199;-80
2023/05/18 04:50:53;;;;;;;7.60;4.97;;;;;;;6.02;100.00;98796.28;5072946;28;20215;-80
2023/05/18 04:53:20;;;;;;;10.07;5.33;;;;;;;6.13;100.00;98794.09;5072945;28;20242;-80
2023/05/18 04:55:48;;;;;;;11.63;4.67;;;;;;;6.26;100.00;98790.03;5073066;28;20212;-80
2023/05/18 04:58:15;;;;;;;7.03;4.80;;;;;;;6.38;100.00;98792.16;5073008;28;20250;-80
2023/05/18 05:00:42;;;;;;;6.90;4.50;;;;;;;6.43;100.00;98803.31;5072749;28;20208;-80
2023/05/18 05:03:09;;;;;;;8.17;4.97;;;;;;;6.62;100.00;98796.38;5072707;28;20511;-82
2023/05/18 05:05:35;;;;;;;6.30;4.30;;;;;;;6.79;100.00;98793.84;5072704;28;20265;-80
2023/05/18 05:08:05;;;;;;;7.07;4.50;;;;;;;6.87;99.78;98788.25;5072568;28;20535;-80
2023/05/18 05:10:31;;;;;;;9.47;4.47;;;;;;;6.97;98.40;98790.41;5072225;28;20356;-80
2023/05/18 05:12:58;;;;;;;7.47;4.80;;;;;;;7.05;97.74;98788.31;5072416;28;20267;-81
2023/05/18 05:15:25;;;;;;;9.13;4.23;;;;;;;7.26;96.06;98792.59;5072428;28;20218;-82
2023/05/18 05:17:51;;;;;;;7.50;3.87;;;;;;;7.44;93.96;98786.47;5072423;28;20232;-80
2023/05/18 05:20:18;;;;;;;7.80;4.73;;;;;;;7.65;92.81;98791.59;5072110;28;20208;-80
2023/05/18 05:22:45;;;;;;;7.30;4.20;;;;;;;7.99;90.21;98769.78;5072415;28;20211;-81
2023/05/18 05:25:12;;;;;;;8.77;4.03;;;;;;;8.37;87.40;98771.38;5072129;28;20232;-80
2023/05/18 05:27:39;;;;;;;5.20;3.70;;;;;;;8.64;83.63;98764.72;5071484;28;20577;-80
2023/05/18 05:30:07;;;;;;;6.47;3.80;;;;;;;8.94;81.64;98755.22;5071857;28;20689;-80
2023/05/18 05:32:34;;;;;;;6.50;3.53;;;;;;;9.23;80.04;98749.25;5072367;28;20225;-80
2023/05/18 05:35:01;;;;;;;8.00;3.97;;;;;;;9.48;78.27;98739.91;5072133;28;20229;-80
2023/05/18 05:37:28;;;;;;;4.87;3.27;;;;;;;9.72;76.18;98737.72;5072002;28;20213;-80
2023/05/18 05:39:55;;;;;;;6.63;3.50;;;;;;;9.98;74.00;98731.78;5071700;28;20211;-80
2023/05/18 05:42:24;;;;;;;10.57;3.90;;;;;;;9.87;73.61;98736.81;5072170;28;20210;-80
2023/05/18 05:44:50;;;;;;;7.83;3.47;;;;;;;9.91;73.02;98739.19;5071889;28;20231;-80
2023/05/18 05:47:17;;;;;;;11.73;3.77;;;;;;;10.12;71.98;98737.16;5071949;28;20220;-80
2023/05/18 05:49:43;;;;;;;7.23;3.33;;;;;;;10.49;72.40;98742.00;5071583;28;20583;-80
2023/05/18 05:52:10;;;;;;;4.53;2.90;;;;;;;10.86;71.18;98744.13;5071706;28;20233;-80
2023/05/18 05:54:36;;;;;;;7.07;3.30;;;;;;;10.98;70.45;98731.03;5071488;28;20752;-81
2023/05/18 05:57:03;;;;;;;9.10;3.60;;;;;;;11.28;70.28;98733.56;5072139;28;20235;-80
2023/05/18 05:59:31;;;;;;;8.27;3.63;;;;;;;11.44;68.89;98723.72;5071655;28;20660;-80
2023/05/18 06:01:58;;;;;;;5.87;3.73;;;;;;;11.58;69.05;98724.56;5071553;28;20212;-80
2023/05/18 06:04:24;;;;;;;5.13;3.23;;;;;;;11.86;66.97;98716.53;5071478;28;20221;-80
2023/05/18 06:06:51;;;;;;;8.63;3.57;;;;;;;12.07;66.88;98716.94;5071390;28;20220;-81
2023/05/18 06:09:17;;;;;;;6.07;2.90;;;;;;;12.39;66.50;98721.81;5071430;28;20207;-81
2023/05/18 06:11:47;;;;;;;4.87;3.00;;;;;;;12.60;66.18;98719.50;5071398;28;20215;-81
2023/05/18 06:14:14;;;;;;;6.50;2.73;;;;;;;12.71;61.91;98685.97;5071399;28;20235;-80
2023/05/18 06:16:42;;;;;;;6.87;2.80;;;;;;;12.71;63.74;98709.03;5071443;28;20563;-80
2023/05/18 06:19:08;;;;;;;5.00;3.07;;;;;;;12.83;62.40;98700.22;5071140;28;20231;-81
2023/05/18 06:21:35;;;;;;;4.80;2.77;;;;;;;12.99;62.04;98696.41;5071267;28;20222;-81
2023/05/18 06:24:03;;;;;;;5.80;3.17;;;;;;;13.00;61.61;98702.56;5071493;28;20227;-81
2023/05/18 06:26:30;;;;;;;6.80;3.10;;;;;;;12.76;61.29;98704.22;5071345;28;20307;-80
2023/05/18 06:28:56;;;;;;;7.83;2.90;;;;;;;12.81;62.61;98715.38;5071331;28;20207;-80
2023/05/18 06:31:23;;;;;;;5.50;2.90;;;;;;;12.80;61.04;98711.03;5071087;28;20596;-80
2023/05/18 06:33:51;;;;;;;9.03;3.57;;;;;;;12.82;61.80;98714.41;5070854;28;20242;-81
2023/05/18 06:36:18;;;;;;;7.70;3.10;;;;;;;12.72;63.09;98719.50;5071216;28;20215;-80
2023/05/18 06:38:44;;;;;;;4.63;2.73;;;;;;;12.81;64.14;98733.94;5071017;28;20223;-81
2023/05/18 06:41:11;;;;;;;5.67;3.20;;;;;;;13.10;64.37;98731.03;5071152;28;20587;-82
2023/05/18 06:43:37;;;;;;;6.03;3.10;;;;;;;13.20;60.89;98707.34;5071128;28;20277;-81
2023/05/18 06:46:04;;;;;;;6.70;3.20;;;;;;;12.55;60.19;98695.09;5071237;28;20211;-81
2023/05/18 06:48:30;;;;;;;6.07;3.00;;;;;;;12.24;62.93;98725.47;5070916;28;20203;-81
2023/05/18 06:50:58;;;;;;;6.67;3.20;;;;;;;11.93;65.09;98743.50;5071135;28;20701;-81
2023/05/18 06:53:25;;;;;;;7.20;3.57;;;;;;;11.56;68.60;98754.72;5070986;28;20229;-81
2023/05/18 06:55:51;;;;;;;4.57;3.17;;;;;;;11.37;68.88;98754.16;5070966;28;20683;-81
2023/05/18 06:58:18;;;;;;;8.53;3.20;;;;;;;11.05;71.55;98765.88;5071002;28;20230;-81
2023/05/18 07:00:44;;;;;;;4.90;2.80;;;;;;;11.01;72.80;98772.31;5070672;28;20213;-81
2023/05/18 07:03:11;;;;;;;5.90;3.17;;;;;;;11.12;74.31;98775.16;5071120;28;20221;-81
2023/05/18 07:05:38;;;;;;;8.87;3.27;;;;;;;11.17;74.74;98778.34;5071070;28;20206;-81
2023/05/18 07:08:06;;;;;;;6.70;3.37;;;;;;;11.21;72.11;98764.00;5071053;28;20203;-81
2023/05/18 07:10:33;;;;;;;7.07;2.90;;;;;;;11.21;70.35;98753.41;5070749;28;20208;-80
2023/05/18 07:13:00;;;;;;;7.70;3.07;;;;;;;11.39;75.35;98784.03;5070860;28;20213;-80
2023/05/18 07:15:26;;;;;;;5.83;3.27;;;;;;;11.38;73.53;98771.75;5070653;28;20702;-80
2023/05/18 07:17:53;;;;;;;5.80;3.23;;;;;;;11.56;74.75;98787.31;5070897;28;20203;-80
2023/05/18 07:20:19;;;;;;;8.37;3.80;;;;;;;11.65;73.41;98777.97;5070736;28;20211;-80
2023/05/18 07:22:46;;;;;;;6.97;3.20;;;;;;;11.79;69.11;98746.19;5071056;28;20584;-80
2023/05/18 07:25:14;;;;;;;6.83;3.10;;;;;;;11.86;70.65;98758.09;5070983;28;20223;-81
2023/05/18 07:27:41;;;;;;;7.57;3.27;;;;;;;12.01;67.67;98743.84;5070899;28;20246;-81
2023/05/18 07:30:09;;;;;;;6.33;3.07;;;;;;;12.08;68.54;98747.78;5070614;28;20207;-81
2023/05/18 07:32:35;;;;;;;6.23;2.90;;;;;;;12.21;69.38;98753.97;5070880;28;20207;-81
2023/05/18 07:35:02;;;;;;;7.53;3.23;;;;;;;12.34;69.91;98757.53;5070531;28;20234;-80
2023/05/18 07:37:28;;;;;;;6.40;3.40;;;;;;;12.47;66.90;98743.34;5070540;28;20222;-81
2023/05/18 07:39:55;;;;;;;8.77;3.73;;;;;;;12.64;68.09;98747.50;5070389;28;20230;-82
2023/05/18 07:42:22;;;;;;;7.53;3.37;;;;;;;12.63;66.27;98727.25;5070376;28;20207;-82
2023/05/18 07:44:52;;;;;;;6.30;3.13;;;;;;;12.75;66.91;98734.34;5070225;28;20562;-83
2023/05/18 07:47:20;;;;;;;5.53;3.37;;;;;;;12.90;66.45;98733.31;5070759;28;20289;-83
2023/05/18 07:49:46;;;;;;;4.70;2.93;;;;;;;13.02;68.29;98738.66;5070873;28;20207;-83
2023/05/18 07:52:13;;;;;;;6.03;2.90;;;;;;;13.18;65.58;98727.81;5074194;28;20694;-83
2023/05/18 07:54:43;;;;;;;7.70;3.27;;;;;;;13.21;62.72;98701.91;5073983;28;20235;-85
2023/05/18 07:57:09;;;;;;;6.97;3.40;;;;;;;13.16;66.41;98729.72;5074052;28;20615;-82
2023/05/18 07:59:37;;;;;;;4.97;3.00;;;;;;;13.22;66.49;98729.31;5073808;28;20231;-83
2023/05/18 08:02:04;;;;;;;6.17;3.00;;;;;;;13.29;64.20;98704.03;5074128;28;20686;-82
2023/05/18 08:04:30;;;;;;;7.63;3.03;;;;;;;13.59;62.60;98696.50;5074089;28;20227;-83
2023/05/18 08:06:59;;;;;;;6.47;3.00;;;;;;;13.70;61.25;98693.94;5074045;28;20212;-84
2023/05/18 08:09:25;;;;;;;4.73;3.00;;;;;;;13.66;61.52;98688.00;5074320;28;20210;-85
2023/05/18 08:11:52;;;;;;;9.07;3.47;;;;;;;13.66;63.00;98703.94;5073799;28;20212;-77
2023/05/18 08:14:19;;;;;;;5.77;3.27;;;;;;;13.77;63.21;98706.66;5073699;28;20293;-83
2023/05/18 08:16:47;;;;;;;7.17;3.10;;;;;;;13.97;66.47;98729.09;5074420;28;20215;-84
2023/05/18 08:19:13;;;;;;;8.30;3.27;;;;;;;14.13;58.72;98665.88;5073611;28;20239;-81
2023/05/18 08:21:40;;;;;;;8.23;3.37;;;;;;;14.06;60.96;98688.56;5074119;28;20230;-85
2023/05/18 08:24:07;;;;;;;11.13;3.20;;;;;;;14.18;61.63;98691.16;5073788;28;20286;-80
2023/05/18 08:26:34;;;;;;;5.87;2.70;;;;;;;14.29;62.17;98698.38;5073703;28;20230;-82
2023/05/18 08:29:01;;;;;;;6.13;3.23;;;;;;;14.33;60.72;98676.75;5073511;28;20215;-79
2023/05/18 08:31:28;;;;;;;6.13;3.58;;;;;;;14.56;61.04;98690.94;5072839;28;20958;-83
2023/05/18 08:33:55;;;;;;;7.27;3.20;;;;;;;14.61;62.51;98700.25;5072043;28;20240;-83
2023/05/18 08:36:22;;;;;;;8.90;3.10;;;;;;;14.64;57.05;98640.66;5072065;28;20221;-83
2023/05/18 08:38:48;;;;;;;5.97;2.87;;;;;;;14.71;57.66;98660.50;5072547;28;20251;-83
2023/05/18 08:41:21;;;;;;;5.97;2.73;;;;;;;14.74;57.81;98655.78;5072407;28;20209;-83
2023/05/18 08:43:52;;;;;;;9.87;3.33;;;;;;;14.58;58.61;98657.09;5072240;28;20291;-83
2023/05/18 08:46:21;;;;;;;6.63;3.40;;;;;;;14.75;59.30;98664.63;5073299;28;20225;-83
2023/05/18 08:48:51;;;;;;;7.15;3.20;;;;;;;14.81;56.11;98641.06;5073267;28;20435;-82
2023/05/18 08:51:21;;;;;;;7.33;3.33;;;;;;;14.83;58.88;98662.19;5073944;28;20202;-82
2023/05/18 08:53:52;;;;;;;7.57;2.80;;;;;;;14.84;54.13;98610.69;5073681;28;20656;-83
2023/05/18 08:56:20;;;;;;;6.53;2.80;;;;;;;14.75;54.13;98606.09;5073878;28;20210;-82
2023/05/18 08:58:50;;;;;;;6.17;2.77;;;;;;;14.54;57.40;98634.38;5073153;28;20271;-83
2023/05/18 09:01:17;;;;;;;8.83;3.30;;;;;;;14.37;58.07;98645.44;5072879;28;20220;-82
2023/05/18 09:03:44;;;;;;;5.87;3.10;;;;;;;14.26;58.08;98640.09;5072967;28;20299;-83
2023/05/18 09:06:11;;;;;;;6.73;3.10;;;;;;;14.37;57.83;98627.66;5072684;28;20266;-83
2023/05/18 09:08:40;;;;;;;6.77;2.87;;;;;;;14.33;57.71;98633.34;5072729;28;20205;-83
2023/05/18 09:11:08;;;;;;;5.40;2.90;;;;;;;14.39;60.46;98670.09;5072483;28;20210;-84
2023/05/18 09:13:35;;;;;;;6.63;2.97;;;;;;;14.57;60.24;98666.03;5072513;28;20328;-82
2023/05/18 09:16:01;;;;;;;6.80;2.90;;;;;;;14.73;58.12;98640.78;5072637;28;20215;-82
2023/05/18 09:18:28;;;;;;;8.77;3.30;;;;;;;14.95;58.75;98650.59;5072190;28;20221;-83
2023/05/18 09:20:54;;;;;;;6.20;3.33;;;;;;;15.19;58.15;98646.00;5072037;28;20217;-81
2023/05/18 09:23:21;;;;;;;7.87;3.17;;;;;;;15.51;57.23;98639.00;5072632;28;20764;-81
2023/05/18 09:25:52;;;;;;;5.87;3.17;;;;;;;15.73;55.54;98628.25;5072520;28;20217;-84
2023/05/18 09:28:35;;;;;;;6.83;3.13;;;;;;;16.02;55.30;98626.72;5072221;28;20251;-82
2023/05/18 09:31:02;;;;;;;4.73;2.80;;;;;;;16.24;54.19;98619.44;5071658;28;20601;-83
2023/05/18 09:33:33;;;;;;;6.00;2.50;;;;;;;16.44;55.94;98642.63;5072178;28;20223;-84
2023/05/18 09:36:00;;;;;;;6.60;2.90;;;;;;;16.23;52.58;98593.75;5072503;28;20582;-84
2023/05/18 09:38:28;;;;;;;8.67;3.10;;;;;;;15.97;53.51;98610.25;5072273;28;20213;-85
2023/05/18 09:40:56;;;;;;;4.07;2.83;;;;;;;15.92;54.80;98623.09;5071886;28;20242;-82
2023/05/18 09:43:22;;;;;;;5.20;3.03;;;;;;;16.24;53.92;98609.63;5071823;28;20668;-80
2023/05/18 09:45:49;;;;;;;6.37;2.97;;;;;;;16.78;56.54;98650.31;5071800;28;20210;-80
2023/05/18 09:48:16;;;;;;;9.10;3.30;;;;;;;17.25;52.66;98601.59;5072022;28;20215;-81
2023/05/18 09:50:44;;;;;;;9.63;2.97;;;;;;;17.42;52.14;98602.78;5071439;28;20290;-79
2023/05/18 09:53:11;;;;;;;7.10;3.13;;;;;;;17.53;52.40;98611.56;5071628;28;20213;-80
2023/05/18 09:55:44;;;;;;;6.00;3.20;;;;;;;17.52;50.96;98588.50;5071623;28;20204;-81
2023/05/18 09:58:12;;;;;;;8.47;3.50;;;;;;;17.28;51.18;98590.66;5071652;28;20223;-81
2023/05/18 10:00:42;;;;;;;5.57;3.20;;;;;;;17.17;51.84;98593.44;5071383;28;20558;-80
2023/05/18 10:03:17;;;;;;;8.33;3.73;;;;;;;17.29;52.65;98604.84;5071487;28;20211;-82
2023/05/18 10:05:44;;;;;;;5.13;3.37;;;;;;;17.23;51.80;98589.34;5071753;28;20217;-89
2023/05/18 10:08:13;;;;;;;8.10;3.27;;;;;;;17.43;51.76;98586.63;5071843;28;20236;-80
2023/05/18 10:10:43;;;;;;;7.20;3.47;;;;;;;17.66;52.28;98598.78;5071168;28;20260;-81
2023/05/18 10:13:16;;;;;;;4.87;3.23;;;;;;;17.84;52.56;98594.44;5070711;28;20221;-73
2023/05/18 10:15:48;;;;;;;7.40;3.07;;;;;;;17.83;50.58;98567.81;5071169;28;20706;-82
2023/05/18 10:18:20;;;;;;;5.37;2.90;;;;;;;17.65;51.47;98578.38;5071383;28;20207;-73
2023/05/18 10:20:47;;;;;;;6.07;2.90;;;;;;;17.77;47.62;98547.00;5071020;28;20242;-81
2023/05/18 10:23:14;;;;;;;7.40;2.83;;;;;;;17.58;47.97;98536.31;5071302;28;20218;-77
2023/05/18 10:25:44;;;;;;;6.43;3.27;;;;;;;17.48;49.55;98556.81;5071649;28;20207;-83
2023/05/18 10:28:11;;;;;;;6.80;3.07;;;;;;;17.38;49.38;98556.81;5071623;28;20219;-82
2023/05/18 10:30:41;;;;;;;5.07;2.77;;;;;;;17.31;49.10;98552.97;5071025;28;20308;-80
2023/05/18 10:33:09;;;;;;;6.23;3.03;;;;;;;17.05;51.07;98586.50;5071566;28;20199;-81
2023/05/18 10:35:38;;;;;;;5.90;2.70;;;;;;;16.95;50.89;98564.25;5071154;28;20207;-80
2023/05/18 10:38:06;;;;;;;7.90;3.33;;;;;;;16.90;50.31;98555.81;5071556;28;20580;-80
2023/05/18 10:40:34;;;;;;;5.50;3.10;;;;;;;16.66;48.44;98530.41;5071322;28;20226;-80
2023/05/18 10:43:03;;;;;;;6.53;3.00;;;;;;;16.52;49.09;98534.28;5070963;28;20207;-80
2023/05/18 10:45:33;;;;;;;5.57;2.80;;;;;;;16.50;53.19;98600.28;5071044;28;20202;-82
2023/05/18 10:48:04;;;;;;;5.57;3.40;;;;;;;16.69;53.19;98607.53;5071108;28;20208;-80
2023/05/18 10:50:31;;;;;;;6.93;3.40;;;;;;;16.85;50.03;98563.38;5071025;28;20210;-81
2023/05/18 10:52:59;;;;;;;7.23;3.40;;;;;;;16.83;48.11;98532.44;5071080;28;20210;-81
2023/05/18 10:55:27;;;;;;;4.70;3.00;;;;;;;16.85;49.92;98547.38;5071376;28;20237;-81
2023/05/18 10:58:01;;;;;;;6.33;3.03;;;;;;;16.81;46.78;98510.38;5071203;28;20242;-77
2023/05/18 11:00:28;;;;;;;6.67;2.87;;;;;;;16.75;52.68;98583.84;5070568;28;20227;-78
2023/05/18 11:02:55;;;;;;;5.77;3.10;;;;;;;16.82;50.10;98558.28;5070794;28;20210;-79
2023/05/18 11:05:26;;;;;;;4.57;3.10;;;;;;;16.65;49.50;98537.56;5070975;28;20203;-78
2023/05/18 11:08:02;;;;;;;5.63;3.17;;;;;;;16.69;51.57;98568.34;5070994;28;20214;-77
2023/05/18 11:10:34;;;;;;;4.93;2.80;;;;;;;16.92;52.14;98575.22;5070773;28;20625;-76
2023/05/18 11:13:01;;;;;;;8.17;3.30;;;;;;;17.20;47.31;98513.00;5070736;28;20215;-76
2023/05/18 11:16:03;;;;;;;5.80;2.73;;;;;;;17.05;46.12;98498.38;5070818;28;20669;-76
2023/05/18 11:18:42;;;;;;;5.47;3.23;;;;;;;16.76;45.59;98492.09;5070858;28;20286;-76
2023/05/18 11:21:34;;;;;;;5.20;2.90;;;;;;;16.74;46.65;98495.88;5070415;28;20231;-76
2023/05/18 11:24:22;;;;;;;4.43;2.90;;;;;;;16.63;48.74;98515.50;5070795;28;20314;-76
2023/05/18 11:26:50;;;;;;;5.10;2.67;;;;;;;16.60;51.65;98552.28;5074334;28;20277;-77
2023/05/18 11:29:18;;;;;;;6.43;2.50;;;;;;;16.64;50.67;98546.56;5074143;28;20218;-77
2023/05/18 11:31:45;;;;;;;5.23;2.83;;;;;;;16.79;50.66;98536.34;5074392;28;20214;-77
2023/05/18 11:34:43;;;;;;;5.40;2.70;;;;;;;17.08;50.94;98554.16;5074172;28;20227;-77
2023/05/18 11:37:12;;;;;;;6.37;2.53;;;;;;;17.21;48.90;98527.22;5069736;28;20211;-79